createdAt,value
2018-03-15T00:01:08.193Z,77.56
2018-03-15T00:03:16.295Z,77.87
2018-03-15T00:05:18.733Z,77.78
2018-03-15T00:07:21.198Z,78.37
2018-03-15T00:09:23.669Z,78.19
2018-03-15T00:11:26.148Z,78.20
2018-03-15T00:13:29.354Z,78.52
2018-03-15T00:15:31.809Z,78.34
2018-03-15T00:17:34.263Z,79.07
2018-03-15T00:19:36.706Z,79.17
2018-03-15T00:21:39.199Z,79.23
2018-03-15T00:23:41.648Z,79.24
2018-03-15T00:25:44.113Z,79.51
2018-03-15T00:27:46.652Z,79.08
2018-03-15T00:29:49.157Z,79.24
2018-03-15T00:31:51.639Z,79.35
2018-03-15T00:33:54.068Z,79.33
2018-03-15T00:35:56.488Z,79.55
2018-03-15T00:37:59.014Z,79.46
2018-03-15T00:40:01.455Z,79.49
2018-03-15T00:42:03.993Z,79.51
2018-03-15T00:44:06.578Z,79.92
2018-03-15T00:46:09.038Z,79.21
2018-03-15T00:48:11.568Z,79.33
2018-03-15T00:50:14.063Z,79.41
2018-03-15T00:52:16.509Z,79.62
2018-03-15T00:54:18.987Z,79.75
2018-03-15T00:56:21.433Z,79.66
2018-03-15T00:58:23.938Z,79.88
2018-03-15T01:00:26.436Z,79.60
2018-03-15T01:02:28.852Z,79.16
2018-03-15T01:04:31.325Z,79.50
2018-03-15T01:06:33.775Z,79.75
2018-03-15T01:08:36.211Z,80.01
2018-03-15T01:10:38.679Z,79.58
2018-03-15T01:12:41.137Z,79.57
2018-03-15T01:14:43.608Z,79.71
2018-03-15T01:16:46.125Z,79.72
2018-03-15T01:18:48.670Z,79.59
2018-03-15T01:20:51.108Z,79.81
2018-03-15T01:22:53.674Z,79.49
2018-03-15T01:24:56.193Z,79.67
2018-03-15T01:26:58.694Z,79.75
2018-03-15T01:29:01.163Z,79.69
2018-03-15T01:31:03.989Z,79.69
2018-03-15T01:33:06.464Z,79.86
2018-03-15T01:35:08.970Z,79.95
2018-03-15T01:37:11.509Z,79.76
2018-03-15T01:39:14.009Z,80.01
2018-03-15T01:41:16.496Z,79.82
2018-03-15T01:43:18.945Z,79.76
2018-03-15T01:45:21.585Z,80.07
2018-03-15T01:47:24.079Z,79.70
2018-03-15T01:49:26.576Z,79.75
2018-03-15T01:51:29.170Z,79.97
2018-03-15T01:53:31.600Z,79.98
2018-03-15T01:55:34.160Z,80.06
2018-03-15T01:57:36.744Z,80.22
2018-03-15T01:59:39.194Z,80.60
2018-03-15T02:01:41.712Z,81.30
2018-03-15T02:03:44.317Z,81.14
2018-03-15T02:05:46.769Z,81.05
2018-03-15T02:07:49.271Z,81.39
2018-03-15T02:09:51.709Z,81.39
2018-03-15T02:11:54.200Z,81.47
2018-03-15T02:13:56.740Z,81.17
2018-03-15T02:15:59.211Z,81.88
2018-03-15T02:18:01.709Z,81.73
2018-03-15T02:20:04.164Z,81.45
2018-03-15T02:22:06.702Z,81.08
2018-03-15T02:24:09.191Z,81.43
2018-03-15T02:26:11.754Z,81.43
2018-03-15T02:28:14.205Z,81.43
2018-03-15T02:30:16.745Z,81.65
2018-03-15T02:32:19.194Z,81.49
2018-03-15T02:34:21.735Z,81.46
2018-03-15T02:36:24.220Z,81.64
2018-03-15T02:38:26.657Z,81.11
2018-03-15T02:40:29.210Z,80.78
2018-03-15T02:42:31.704Z,80.77
2018-03-15T02:44:34.204Z,81.17
2018-03-15T02:46:36.795Z,80.81
2018-03-15T02:48:39.365Z,80.86
2018-03-15T02:50:41.931Z,81.13
2018-03-15T02:52:44.391Z,81.22
2018-03-15T02:54:46.862Z,80.86
2018-03-15T02:56:49.331Z,81.00
2018-03-15T02:58:51.783Z,80.62
2018-03-15T03:00:54.235Z,80.30
2018-03-15T03:02:56.732Z,80.46
2018-03-15T03:04:59.232Z,80.59
2018-03-15T03:07:01.723Z,80.14
2018-03-15T03:09:04.213Z,80.07
2018-03-15T03:11:06.671Z,80.36
2018-03-15T03:13:09.136Z,80.30
2018-03-15T03:15:11.588Z,80.36
2018-03-15T03:17:14.000Z,80.49
2018-03-15T03:19:16.681Z,79.84
2018-03-15T03:21:19.175Z,80.13
2018-03-15T03:23:21.633Z,80.24
2018-03-15T03:25:24.158Z,80.07
2018-03-15T03:27:26.656Z,79.82
2018-03-15T03:29:29.102Z,80.04
2018-03-15T03:31:31.641Z,79.93
2018-03-15T03:33:34.131Z,79.81
2018-03-15T03:35:36.578Z,80.11
2018-03-15T03:37:39.077Z,79.58
2018-03-15T03:39:41.505Z,79.73
2018-03-15T03:41:44.006Z,79.52
2018-03-15T03:43:46.480Z,79.87
2018-03-15T03:45:48.950Z,79.98
2018-03-15T03:47:51.446Z,79.91
2018-03-15T03:49:53.903Z,79.61
2018-03-15T03:51:56.383Z,79.92
2018-03-15T03:53:58.858Z,79.16
2018-03-15T03:56:01.328Z,78.63
2018-03-15T03:58:03.875Z,78.31
2018-03-15T04:00:06.353Z,78.14
2018-03-15T04:02:08.918Z,78.40
2018-03-15T04:04:11.367Z,78.31
2018-03-15T04:06:13.887Z,78.82
2018-03-15T04:08:16.340Z,78.83
2018-03-15T04:10:18.773Z,78.85
2018-03-15T04:12:21.253Z,79.23
2018-03-15T04:14:23.771Z,79.29
2018-03-15T04:16:26.266Z,79.01
2018-03-15T04:18:28.683Z,78.59
2018-03-15T04:20:31.133Z,78.69
2018-03-15T04:22:33.661Z,78.87
2018-03-15T04:24:36.123Z,78.95
2018-03-15T04:26:38.560Z,78.97
2018-03-15T04:28:41.133Z,79.20
2018-03-15T04:30:43.597Z,79.62
2018-03-15T04:32:46.132Z,79.37
2018-03-15T04:34:48.722Z,79.33
2018-03-15T04:36:51.218Z,79.40
2018-03-15T04:38:53.687Z,79.75
2018-03-15T04:40:56.137Z,79.34
2018-03-15T04:42:58.616Z,79.45
2018-03-15T04:45:01.093Z,79.46
2018-03-15T04:47:03.605Z,79.76
2018-03-15T04:49:06.070Z,79.55
2018-03-15T04:51:08.511Z,79.66
2018-03-15T04:53:11.006Z,79.37
2018-03-15T04:55:13.453Z,79.37
2018-03-15T04:57:15.892Z,79.36
2018-03-15T04:59:18.382Z,79.78
2018-03-15T05:01:20.863Z,79.69
2018-03-15T05:03:23.367Z,79.41
2018-03-15T05:05:25.780Z,79.22
2018-03-15T05:07:28.232Z,79.20
2018-03-15T05:09:30.727Z,79.29
2018-03-15T05:11:33.183Z,79.61
2018-03-15T05:13:35.681Z,79.23
2018-03-15T05:15:38.173Z,79.41
2018-03-15T05:17:40.642Z,79.91
2018-03-15T05:19:43.118Z,79.95
2018-03-15T05:21:45.558Z,80.12
2018-03-15T05:23:48.044Z,80.49
2018-03-15T05:25:50.589Z,80.24
2018-03-15T05:27:53.105Z,80.46
2018-03-15T05:29:55.572Z,80.72
2018-03-15T05:32:00.002Z,81.43
2018-03-15T05:34:02.512Z,81.73
2018-03-15T05:36:05.051Z,82.52
2018-03-15T05:38:07.503Z,83.13
2018-03-15T05:40:10.019Z,82.99
2018-03-15T05:42:12.593Z,83.51
2018-03-15T05:44:15.043Z,83.71
2018-03-15T05:46:17.493Z,83.83
2018-03-15T05:48:19.961Z,84.23
2018-03-15T05:50:22.454Z,84.69
2018-03-15T05:52:24.967Z,84.28
2018-03-15T05:54:27.434Z,84.52
2018-03-15T05:56:29.948Z,84.14
2018-03-15T05:58:32.472Z,82.24
2018-03-15T06:00:34.966Z,80.78
2018-03-15T06:02:37.568Z,80.72
2018-03-15T06:04:40.182Z,78.86
2018-03-15T06:06:42.648Z,77.45
2018-03-15T06:08:45.084Z,75.58
2018-03-15T06:10:47.586Z,75.86
2018-03-15T06:12:50.049Z,75.89
2018-03-15T06:14:52.518Z,76.66
2018-03-15T06:16:55.009Z,78.21
2018-03-15T06:18:57.538Z,76.16
2018-03-15T06:20:59.967Z,76.24
2018-03-15T06:23:02.488Z,78.19
2018-03-15T06:25:04.928Z,78.09
2018-03-15T06:27:07.457Z,77.11
2018-03-15T06:29:09.935Z,78.42
2018-03-15T06:31:12.469Z,78.66
2018-03-15T06:33:14.989Z,78.46
2018-03-15T06:35:17.459Z,79.19
2018-03-15T06:37:20.000Z,79.78
2018-03-15T06:39:22.521Z,78.71
2018-03-15T06:41:24.992Z,78.43
2018-03-15T06:43:27.448Z,78.35
2018-03-15T06:45:29.927Z,78.26
2018-03-15T06:47:32.420Z,77.77
2018-03-15T06:49:34.899Z,76.95
2018-03-15T06:51:37.371Z,77.27
2018-03-15T06:53:39.885Z,76.66
2018-03-15T06:55:42.334Z,76.47
2018-03-15T06:57:44.809Z,76.33
2018-03-15T06:59:47.369Z,75.49
2018-03-15T07:01:49.804Z,75.76
2018-03-15T07:03:52.263Z,74.98
2018-03-15T07:05:54.822Z,73.79
2018-03-15T07:07:57.278Z,73.18
2018-03-15T07:09:59.838Z,73.33
2018-03-15T07:12:02.432Z,72.63
2018-03-15T07:14:04.920Z,73.98
2018-03-15T07:16:07.415Z,74.11
2018-03-15T07:18:10.012Z,73.59
2018-03-15T07:20:12.474Z,73.48
2018-03-15T07:22:14.903Z,73.22
2018-03-15T07:24:17.383Z,74.25
2018-03-15T07:26:19.885Z,74.55
2018-03-15T07:28:22.327Z,74.42
2018-03-15T07:30:24.812Z,74.82
2018-03-15T07:32:27.350Z,72.90
2018-03-15T07:34:29.850Z,72.52
2018-03-15T07:36:32.310Z,71.93
2018-03-15T07:38:34.848Z,71.57
2018-03-15T07:40:37.350Z,72.15
2018-03-15T07:42:39.816Z,72.48
2018-03-15T07:44:42.363Z,72.58
2018-03-15T07:46:44.910Z,72.95
2018-03-15T07:48:47.410Z,73.29
2018-03-15T07:50:49.942Z,72.14
2018-03-15T07:52:52.498Z,73.12
2018-03-15T07:54:54.988Z,72.97
2018-03-15T07:56:57.445Z,72.08
2018-03-15T07:58:59.978Z,73.07
2018-03-15T08:01:02.445Z,73.20
2018-03-15T08:03:04.914Z,73.43
2018-03-15T08:05:07.455Z,73.43
2018-03-15T08:07:09.948Z,74.04
2018-03-15T08:09:12.414Z,73.51
2018-03-15T08:11:14.929Z,72.96
2018-03-15T08:13:17.430Z,72.80
2018-03-15T08:15:19.920Z,73.58
2018-03-15T08:17:22.339Z,71.84
2018-03-15T08:19:24.915Z,71.94
2018-03-15T08:21:27.381Z,72.29
2018-03-15T08:23:29.825Z,71.61
2018-03-15T08:25:32.271Z,71.96
2018-03-15T08:27:34.788Z,71.77
2018-03-15T08:29:37.214Z,71.19
2018-03-15T08:31:39.670Z,72.06
2018-03-15T08:33:42.211Z,70.97
2018-03-15T08:35:44.685Z,71.40
2018-03-15T08:37:47.240Z,71.23
2018-03-15T08:39:49.696Z,71.17
2018-03-15T08:41:52.229Z,71.98
2018-03-15T08:43:54.720Z,70.98
2018-03-15T08:45:57.211Z,70.83
2018-03-15T08:47:59.701Z,70.29
2018-03-15T08:50:02.184Z,70.58
2018-03-15T08:52:04.625Z,70.38
2018-03-15T08:54:07.150Z,70.18
2018-03-15T08:56:09.684Z,70.92
2018-03-15T08:58:12.142Z,70.57
2018-03-15T09:00:14.717Z,70.66
2018-03-15T09:02:17.130Z,70.52
2018-03-15T09:04:19.593Z,70.68
2018-03-15T09:06:22.084Z,70.26
2018-03-15T09:08:24.753Z,70.34
2018-03-15T09:10:27.165Z,70.24
2018-03-15T09:12:29.626Z,68.83
2018-03-15T09:14:32.076Z,69.28
2018-03-15T09:16:34.579Z,69.45
2018-03-15T09:18:37.101Z,69.79
2018-03-15T09:20:39.545Z,68.91
2018-03-15T09:22:42.091Z,69.38
2018-03-15T09:24:44.591Z,68.71
2018-03-15T09:26:47.176Z,68.88
2018-03-15T09:28:49.638Z,70.01
2018-03-15T09:30:52.163Z,68.04
2018-03-15T09:32:54.641Z,68.52
2018-03-15T09:34:57.174Z,68.72
2018-03-15T09:36:59.610Z,68.42
2018-03-15T09:39:02.242Z,68.29
2018-03-15T09:41:04.937Z,67.30
2018-03-15T09:43:07.420Z,68.37
2018-03-15T09:45:09.921Z,66.94
2018-03-15T09:47:12.450Z,67.59
2018-03-15T09:49:14.940Z,68.78
2018-03-15T09:51:17.437Z,67.39
2018-03-15T09:53:19.997Z,68.04
2018-03-15T09:55:22.496Z,69.00
2018-03-15T09:57:24.987Z,67.59
2018-03-15T09:59:27.467Z,68.23
2018-03-15T10:01:30.075Z,67.69
2018-03-15T10:03:32.666Z,67.91
2018-03-15T10:05:35.192Z,67.31
2018-03-15T10:07:37.717Z,68.76
2018-03-15T10:09:40.212Z,68.10
2018-03-15T10:11:42.668Z,66.83
2018-03-15T10:13:45.221Z,66.17
2018-03-15T10:15:47.721Z,66.86
2018-03-15T10:17:50.222Z,66.89
2018-03-15T10:19:52.681Z,66.00
2018-03-15T10:21:55.136Z,66.50
2018-03-15T10:23:57.647Z,66.56
2018-03-15T10:26:00.194Z,66.83
2018-03-15T10:28:02.792Z,67.90
2018-03-15T10:30:05.391Z,66.54
2018-03-15T10:32:07.896Z,67.14
2018-03-15T10:34:10.346Z,66.56
2018-03-15T10:36:12.872Z,66.62
2018-03-15T10:38:15.288Z,66.91
2018-03-15T10:40:17.784Z,67.95
2018-03-15T10:42:20.317Z,66.53
2018-03-15T10:44:22.842Z,66.63
2018-03-15T10:46:25.352Z,66.49
2018-03-15T10:48:27.834Z,65.57
2018-03-15T10:50:30.421Z,65.89
2018-03-15T10:52:32.977Z,66.82
2018-03-15T10:54:35.484Z,65.33
2018-03-15T10:56:38.010Z,66.23
2018-03-15T10:58:40.466Z,65.37
2018-03-15T11:00:48.701Z,65.94
2018-03-15T11:02:51.236Z,64.76
2018-03-15T11:04:59.187Z,65.75
2018-03-15T11:07:16.051Z,65.91
2018-03-15T11:09:23.351Z,65.44
2018-03-15T11:11:25.846Z,65.87
2018-03-15T11:13:28.391Z,63.66
2018-03-15T11:15:30.857Z,65.18
2018-03-15T11:17:33.442Z,63.76
2018-03-15T11:19:36.026Z,64.66
2018-03-15T11:21:38.622Z,65.45
2018-03-15T11:23:41.122Z,64.57
2018-03-15T11:25:43.577Z,64.90
2018-03-15T11:27:46.096Z,64.72
2018-03-15T11:29:48.555Z,64.76
2018-03-15T11:31:51.037Z,64.21
2018-03-15T11:33:53.551Z,65.18
2018-03-15T11:35:55.988Z,64.56
2018-03-15T11:37:58.483Z,64.51
2018-03-15T11:40:00.983Z,64.50
2018-03-15T11:42:03.432Z,64.33
2018-03-15T11:44:05.948Z,64.88
2018-03-15T11:46:08.573Z,63.75
2018-03-15T11:48:11.141Z,64.08
2018-03-15T11:50:13.623Z,63.63
2018-03-15T11:52:16.221Z,64.72
2018-03-15T11:54:18.705Z,62.79
2018-03-15T11:56:21.303Z,62.88
2018-03-15T11:58:23.922Z,64.39
2018-03-15T12:00:26.431Z,65.56
2018-03-15T12:02:28.892Z,63.06
2018-03-15T12:04:31.487Z,63.29
2018-03-15T12:06:33.967Z,63.67
2018-03-15T12:08:36.496Z,63.86
2018-03-15T12:10:39.047Z,64.27
2018-03-15T12:12:41.527Z,63.78
2018-03-15T12:14:44.021Z,64.40
2018-03-15T12:16:46.516Z,64.47
2018-03-15T12:18:49.038Z,64.34
2018-03-15T12:20:51.536Z,63.66
2018-03-15T12:22:54.022Z,63.43
2018-03-15T12:24:56.518Z,63.92
2018-03-15T12:26:59.032Z,63.27
2018-03-15T12:29:01.472Z,62.76
2018-03-15T12:31:03.927Z,63.16
2018-03-15T12:33:06.418Z,62.86
2018-03-15T12:35:08.989Z,62.12
2018-03-15T12:37:11.461Z,62.65
2018-03-15T12:39:13.958Z,63.10
2018-03-15T12:41:16.482Z,63.60
2018-03-15T12:43:18.959Z,62.45
2018-03-15T12:45:21.468Z,63.76
2018-03-15T12:47:23.947Z,64.27
2018-03-15T12:49:26.437Z,64.08
2018-03-15T12:51:28.933Z,64.02
2018-03-15T12:53:31.526Z,64.37
2018-03-15T12:55:35.854Z,65.10
2018-03-15T12:57:38.354Z,63.66
2018-03-15T12:59:40.952Z,64.43
2018-03-15T13:01:43.438Z,64.46
2018-03-15T13:03:46.037Z,63.99
2018-03-15T13:05:48.537Z,64.63
2018-03-15T13:07:51.009Z,63.66
2018-03-15T13:09:53.484Z,64.43
2018-03-15T13:11:56.016Z,63.84
2018-03-15T13:13:58.504Z,63.31
2018-03-15T13:16:01.015Z,63.22
2018-03-15T13:18:03.495Z,62.66
2018-03-15T13:20:06.033Z,64.49
2018-03-15T13:22:08.498Z,63.21
2018-03-15T13:24:10.984Z,63.58
2018-03-15T13:26:13.485Z,62.28
2018-03-15T13:28:15.970Z,63.58
2018-03-15T13:30:18.427Z,63.51
2018-03-15T13:32:20.947Z,62.92
2018-03-15T13:34:23.559Z,62.72
2018-03-15T13:36:26.037Z,62.60
2018-03-15T13:38:28.498Z,62.39
2018-03-15T13:40:30.932Z,63.50
2018-03-15T13:42:33.422Z,63.31
2018-03-15T13:44:35.907Z,63.25
2018-03-15T13:46:38.389Z,62.91
2018-03-15T13:48:40.884Z,63.08
2018-03-15T13:50:43.357Z,63.26
2018-03-15T13:52:45.983Z,63.36
2018-03-15T13:54:48.465Z,63.86
2018-03-15T13:56:50.994Z,63.14
2018-03-15T13:58:53.560Z,63.42
2018-03-15T14:00:56.024Z,62.63
2018-03-15T14:02:58.580Z,63.03
2018-03-15T14:05:01.039Z,62.87
2018-03-15T14:07:03.635Z,64.30
2018-03-15T14:09:06.051Z,63.35
2018-03-15T14:11:08.516Z,63.56
2018-03-15T14:13:11.110Z,62.38
2018-03-15T14:15:13.572Z,62.57
2018-03-15T14:17:16.005Z,63.54
2018-03-15T14:19:18.608Z,63.63
2018-03-15T14:21:21.138Z,62.83
2018-03-15T14:23:23.615Z,63.29
2018-03-15T14:25:26.109Z,63.11
2018-03-15T14:27:28.543Z,63.64
2018-03-15T14:29:31.133Z,63.10
2018-03-15T14:31:33.629Z,63.68
2018-03-15T14:33:36.194Z,63.19
2018-03-15T14:35:38.668Z,63.48
2018-03-15T14:37:41.269Z,63.16
2018-03-15T14:39:43.710Z,63.04
2018-03-15T14:41:46.288Z,62.38
2018-03-15T14:43:48.761Z,63.22
2018-03-15T14:45:51.205Z,63.31
2018-03-15T14:47:53.721Z,63.17
2018-03-15T14:49:56.262Z,63.00
2018-03-15T14:51:58.738Z,62.67
2018-03-15T14:54:01.216Z,63.18
2018-03-15T14:56:03.744Z,63.53
2018-03-15T14:58:06.193Z,62.93
2018-03-15T15:00:08.673Z,63.92
2018-03-15T15:02:11.126Z,64.21
2018-03-15T15:04:13.549Z,63.88
2018-03-15T15:06:16.192Z,65.07
2018-03-15T15:08:18.654Z,64.50
2018-03-15T15:10:21.116Z,65.01
2018-03-15T15:12:23.616Z,65.56
2018-03-15T15:14:26.134Z,65.60
2018-03-15T15:16:28.601Z,66.22
2018-03-15T15:18:31.095Z,65.88
2018-03-15T15:20:33.601Z,66.60
2018-03-15T15:22:36.071Z,66.30
2018-03-15T15:24:38.579Z,66.51
2018-03-15T15:26:41.079Z,65.70
2018-03-15T15:28:43.561Z,66.27
2018-03-15T15:30:46.092Z,66.53
2018-03-15T15:32:48.610Z,65.98
2018-03-15T15:34:51.069Z,67.49
2018-03-15T15:36:53.639Z,67.72
2018-03-15T15:38:56.196Z,67.33
2018-03-15T15:40:58.688Z,68.61
2018-03-15T15:43:01.159Z,69.09
2018-03-15T15:45:03.725Z,68.85
2018-03-15T15:47:06.196Z,68.81
2018-03-15T15:49:08.691Z,68.77
2018-03-15T15:51:11.285Z,68.85
2018-03-15T15:53:13.881Z,68.67
2018-03-15T15:55:16.450Z,69.27
2018-03-15T15:57:19.037Z,69.09
2018-03-15T15:59:21.520Z,69.20
2018-03-15T16:01:24.041Z,69.79
2018-03-15T16:03:26.591Z,70.28
2018-03-15T16:05:29.190Z,70.16
2018-03-15T16:07:31.710Z,69.83
2018-03-15T16:09:34.301Z,70.55
2018-03-15T16:11:36.824Z,69.91
2018-03-15T16:13:39.335Z,70.30
2018-03-15T16:15:41.825Z,70.61
2018-03-15T16:17:44.349Z,70.71
2018-03-15T16:19:46.809Z,70.82
2018-03-15T16:21:49.282Z,70.90
2018-03-15T16:23:51.807Z,71.05
2018-03-15T16:25:54.286Z,71.19
2018-03-15T16:27:56.859Z,71.11
2018-03-15T16:29:59.378Z,70.25
2018-03-15T16:32:01.889Z,70.88
2018-03-15T16:34:04.327Z,70.87
2018-03-15T16:36:06.817Z,70.24
2018-03-15T16:38:09.342Z,69.67
2018-03-15T16:40:11.811Z,70.57
2018-03-15T16:42:14.333Z,70.61
2018-03-15T16:44:16.799Z,70.81
2018-03-15T16:46:19.315Z,71.30
2018-03-15T16:48:21.915Z,71.13
2018-03-15T16:50:24.406Z,71.07
2018-03-15T16:52:26.874Z,71.74
2018-03-15T16:54:29.447Z,71.71
2018-03-15T16:56:31.927Z,71.63
2018-03-15T16:58:34.488Z,71.83
2018-03-15T17:00:37.084Z,71.48
2018-03-15T17:02:39.606Z,72.10
2018-03-15T17:04:42.090Z,72.06
2018-03-15T17:06:44.665Z,72.44
2018-03-15T17:08:47.258Z,72.45
2018-03-15T17:10:49.718Z,72.44
2018-03-15T17:12:52.347Z,72.64
2018-03-15T17:14:54.842Z,73.13
2018-03-15T17:16:58.297Z,72.91
2018-03-15T17:19:00.812Z,73.16
2018-03-15T17:21:03.297Z,73.26
2018-03-15T17:23:05.745Z,73.86
2018-03-15T17:25:08.272Z,73.79
2018-03-15T17:27:10.728Z,73.80
2018-03-15T17:29:13.246Z,74.03
2018-03-15T17:31:15.701Z,73.96
2018-03-15T17:33:18.153Z,73.96
2018-03-15T17:35:20.626Z,74.43
2018-03-15T17:37:23.182Z,74.99
2018-03-15T17:39:25.739Z,75.16
2018-03-15T17:41:28.372Z,75.27
2018-03-15T17:43:30.870Z,75.31
2018-03-15T17:45:33.360Z,75.21
2018-03-15T17:47:35.869Z,75.72
2018-03-15T17:49:38.475Z,75.81
2018-03-15T17:51:40.902Z,76.08
2018-03-15T17:53:43.417Z,75.95
2018-03-15T17:55:46.030Z,76.34
2018-03-15T17:57:48.644Z,76.50
2018-03-15T17:59:51.226Z,76.26
2018-03-15T18:01:53.690Z,76.40
2018-03-15T18:03:56.230Z,76.70
2018-03-15T18:05:58.804Z,76.89
2018-03-15T18:08:01.378Z,77.24
2018-03-15T18:10:03.993Z,77.47
2018-03-15T18:12:06.548Z,77.18
2018-03-15T18:14:09.120Z,78.08
2018-03-15T18:16:11.662Z,77.89
2018-03-15T18:18:14.168Z,78.25
2018-03-15T18:20:16.756Z,78.39
2018-03-15T18:22:19.387Z,78.40
2018-03-15T18:24:21.957Z,78.71
2018-03-15T18:26:24.441Z,78.72
2018-03-15T18:28:26.946Z,78.79
2018-03-15T18:30:29.448Z,78.69
2018-03-15T18:32:31.892Z,79.30
2018-03-15T18:34:34.392Z,79.17
2018-03-15T18:36:36.987Z,78.79
2018-03-15T18:38:39.555Z,79.07
2018-03-15T18:40:42.068Z,79.32
2018-03-15T18:42:44.810Z,79.53
2018-03-15T18:44:47.404Z,79.44
2018-03-15T18:46:49.955Z,79.02
2018-03-15T18:48:52.701Z,79.41
2018-03-15T18:50:55.288Z,79.62
2018-03-15T18:52:57.827Z,79.86
2018-03-15T18:55:00.323Z,79.47
2018-03-15T18:57:02.802Z,79.79
2018-03-15T18:59:05.397Z,79.85
2018-03-15T19:01:12.614Z,80.12
2018-03-15T19:03:10.334Z,79.98
2018-03-15T19:05:12.846Z,79.64
2018-03-15T19:07:15.448Z,80.08
2018-03-15T19:09:17.942Z,79.85
2018-03-15T19:11:20.452Z,79.95
2018-03-15T19:13:23.122Z,80.08
2018-03-15T19:15:25.601Z,79.75
2018-03-15T19:17:28.318Z,79.98
2018-03-15T19:19:30.811Z,80.99
2018-03-15T19:21:33.411Z,79.93
2018-03-15T19:23:36.004Z,80.06
2018-03-15T19:25:38.501Z,79.67
2018-03-15T19:27:41.094Z,79.82
2018-03-15T19:29:43.623Z,80.26
2018-03-15T19:31:46.130Z,80.11
2018-03-15T19:33:48.623Z,80.23
2018-03-15T19:35:51.094Z,80.27
2018-03-15T19:37:53.612Z,80.45
2018-03-15T19:39:56.147Z,80.01
2018-03-15T19:41:58.716Z,79.95
2018-03-15T19:44:01.284Z,80.33
2018-03-15T19:46:03.795Z,79.85
2018-03-15T19:48:06.272Z,79.85
2018-03-15T19:50:08.842Z,79.66
2018-03-15T19:52:11.329Z,79.82
2018-03-15T19:54:13.853Z,79.60
2018-03-15T19:56:16.327Z,79.47
2018-03-15T19:58:18.892Z,79.62
2018-03-15T20:00:21.367Z,79.93
2018-03-15T20:02:23.876Z,79.81
2018-03-15T20:04:26.296Z,79.95
2018-03-15T20:06:28.828Z,80.45
2018-03-15T20:08:31.284Z,80.20
2018-03-15T20:10:33.804Z,80.30
2018-03-15T20:12:36.279Z,80.40
2018-03-15T20:14:38.833Z,80.44
2018-03-15T20:16:41.438Z,80.81
2018-03-15T20:18:44.028Z,81.35
2018-03-15T20:20:46.812Z,81.36
2018-03-15T20:25:30.515Z,80.86
2018-03-15T20:27:38.599Z,81.27
2018-03-15T20:29:41.314Z,81.53
2018-03-15T20:31:43.755Z,81.61
2018-03-15T20:33:51.841Z,81.77
2018-03-15T20:35:54.312Z,81.58
2018-03-15T20:37:56.778Z,81.62
2018-03-15T20:40:04.792Z,81.87
2018-03-15T20:42:07.362Z,81.52
2018-03-15T20:44:09.959Z,81.69
2018-03-15T20:46:17.962Z,82.06
2018-03-15T20:48:41.213Z,82.34
2018-03-15T20:50:43.802Z,82.52
2018-03-15T20:52:46.336Z,82.61
2018-03-15T20:54:48.785Z,82.49
2018-03-15T20:56:51.280Z,82.50
2018-03-15T20:58:53.885Z,82.94
2018-03-15T21:00:56.349Z,82.97
2018-03-15T21:02:58.979Z,83.29
2018-03-15T21:05:01.495Z,83.24
2018-03-15T21:07:03.990Z,83.39
2018-03-15T21:09:06.433Z,83.60
2018-03-15T21:11:08.949Z,83.72
2018-03-15T21:13:11.477Z,83.71
2018-03-15T21:15:13.999Z,83.78
2018-03-15T21:17:16.475Z,83.77
2018-03-15T21:19:19.025Z,84.09
2018-03-15T21:21:21.500Z,84.23
2018-03-15T21:23:23.999Z,84.34
2018-03-15T21:25:26.775Z,84.45
2018-03-15T21:27:29.254Z,84.57
2018-03-15T21:29:31.789Z,84.79
2018-03-15T21:31:34.236Z,84.65
2018-03-15T21:33:36.724Z,84.35
2018-03-15T21:35:39.231Z,84.28
2018-03-15T21:37:41.695Z,84.71
2018-03-15T21:39:44.178Z,84.78
2018-03-15T21:41:46.666Z,84.81
2018-03-15T21:43:49.146Z,84.68
2018-03-15T21:45:51.609Z,84.74
2018-03-15T21:47:54.141Z,84.86
2018-03-15T21:49:56.690Z,84.50
2018-03-15T21:51:59.167Z,84.53
2018-03-15T21:54:01.672Z,84.66
2018-03-15T21:56:04.145Z,84.68
2018-03-15T21:58:06.640Z,84.67
2018-03-15T22:00:09.154Z,84.86
2018-03-15T22:02:11.674Z,85.24
2018-03-15T22:04:14.125Z,85.28
2018-03-15T22:06:16.649Z,85.37
2018-03-15T22:08:19.260Z,85.52
2018-03-15T22:10:21.756Z,85.81
2018-03-15T22:12:24.263Z,85.44
2018-03-15T22:14:26.782Z,85.19
2018-03-15T22:16:29.335Z,85.29
2018-03-15T22:18:31.823Z,85.45
2018-03-15T22:20:34.314Z,85.27
2018-03-15T22:22:36.756Z,85.29
2018-03-15T22:24:39.254Z,85.34
2018-03-15T22:26:41.716Z,85.20
2018-03-15T22:28:44.188Z,85.23
2018-03-15T22:30:46.775Z,85.19
2018-03-15T22:32:49.230Z,85.39
2018-03-15T22:34:51.872Z,85.40
2018-03-15T22:36:54.433Z,85.46
2018-03-15T22:38:56.935Z,85.58
2018-03-15T22:40:59.422Z,85.52
2018-03-15T22:43:01.890Z,85.11
2018-03-15T22:45:04.449Z,85.13
2018-03-15T22:47:06.963Z,85.53
2018-03-15T22:49:09.531Z,85.27
2018-03-15T22:51:12.002Z,85.58
2018-03-15T22:53:14.454Z,85.43
2018-03-15T22:55:16.967Z,85.40
2018-03-15T22:57:19.455Z,85.84
2018-03-15T22:59:22.026Z,85.79
2018-03-15T23:01:24.480Z,85.86
2018-03-15T23:03:27.011Z,86.04
2018-03-15T23:05:29.475Z,85.59
2018-03-15T23:07:31.915Z,85.87
2018-03-15T23:09:34.406Z,85.89
2018-03-15T23:11:36.955Z,85.96
2018-03-15T23:13:39.442Z,86.18
2018-03-15T23:15:41.889Z,86.08
2018-03-15T23:17:44.440Z,85.81
2018-03-15T23:19:46.884Z,85.62
2018-03-15T23:21:49.329Z,86.20
2018-03-15T23:23:51.796Z,86.41
2018-03-15T23:25:54.225Z,86.53
2018-03-15T23:27:56.791Z,86.53
2018-03-15T23:29:59.284Z,86.62
2018-03-15T23:32:01.745Z,86.56
2018-03-15T23:34:04.190Z,86.50
2018-03-15T23:36:06.674Z,86.76
2018-03-15T23:38:09.254Z,86.37
2018-03-15T23:40:11.759Z,86.38
2018-03-15T23:42:14.246Z,85.92
2018-03-15T23:44:16.714Z,86.09
2018-03-15T23:46:19.166Z,85.96
2018-03-15T23:48:21.720Z,86.42
2018-03-15T23:50:24.321Z,86.61
2018-03-15T23:52:26.746Z,86.41
2018-03-15T23:54:29.200Z,86.38
2018-03-15T23:56:31.692Z,86.24
2018-03-15T23:58:34.164Z,86.42
